Time;durP1;ratioP1;P1;durP2;ratioP2;P2;SDS_P1;SDS_P2;PMS_P1;PMS_P2;Temp;Humidity;BMP_temperature;BMP_pressure;BME280_temperature;BME280_humidity;BME280_pressure;Samples;Min_cycle;Max_cycle;Signal;HPM_P1;HPM_P2
2021/11/07 07:33:54;;;;;;;11.32;8.63;;;;;;;5.67;80.51;99290.66;2617600;39;20436;-65
2021/11/07 07:36:24;;;;;;;12.13;8.43;;;;;;;5.68;80.47;99281.81;2624203;54;20045;-64
2021/11/07 07:38:54;;;;;;;11.32;9.02;;;;;;;5.75;80.68;99274.97;2624809;54;20576;-64
2021/11/07 07:41:24;;;;;;;11.43;8.73;;;;;;;5.82;80.78;99244.56;2623890;54;20026;-64
2021/11/07 07:43:57;;;;;;;10.25;7.95;;;;;;;5.82;80.54;99268.16;2622925;54;20065;-64
2021/11/07 07:46:26;;;;;;;10.13;7.45;;;;;;;5.81;80.55;99258.66;2624585;39;20450;-64
2021/11/07 07:48:59;;;;;;;10.10;7.82;;;;;;;5.82;80.81;99297.03;2624398;46;20069;-64
2021/11/07 07:51:30;;;;;;;12.27;8.10;;;;;;;5.86;80.91;99306.25;2623885;54;20601;-64
2021/11/07 07:54:02;;;;;;;7.93;6.68;;;;;;;5.90;80.80;99314.66;2624323;54;20058;-64
2021/11/07 07:56:32;;;;;;;11.80;7.45;;;;;;;5.91;80.33;99334.66;2624486;54;20038;-64
2021/11/07 07:59:02;;;;;;;10.13;7.75;;;;;;;6.03;80.83;99319.53;2622368;54;20035;-65
2021/11/07 08:01:32;;;;;;;7.30;6.43;;;;;;;6.08;80.51;99318.13;2622522;54;20061;-65
2021/11/07 08:04:05;;;;;;;8.73;6.63;;;;;;;6.10;80.45;99313.56;2624624;54;20057;-65
2021/11/07 08:06:35;;;;;;;7.97;6.47;;;;;;;6.09;80.45;99303.22;2622372;54;20529;-65
2021/11/07 08:09:06;;;;;;;7.28;5.97;;;;;;;6.10;80.20;99315.34;2624084;54;20022;-66
2021/11/07 08:11:36;;;;;;;8.10;6.22;;;;;;;6.09;79.90;99311.91;2623880;54;20026;-66
2021/11/07 08:14:05;;;;;;;9.77;6.35;;;;;;;6.14;80.32;99308.81;2623656;39;20458;-66
2021/11/07 08:16:35;;;;;;;7.43;6.20;;;;;;;6.18;80.00;99294.41;2623377;54;20030;-66
2021/11/07 08:19:08;;;;;;;8.15;6.38;;;;;;;6.18;79.80;99291.78;2623248;54;20564;-66
2021/11/07 08:21:41;;;;;;;7.00;5.97;;;;;;;6.13;80.51;99289.63;2622831;54;20027;-66
2021/11/07 08:24:12;;;;;;;8.27;6.63;;;;;;;6.14;80.55;99286.00;2622965;54;20063;-66
2021/11/07 08:26:43;;;;;;;8.88;6.10;;;;;;;6.18;80.71;99297.88;2623860;54;20053;-66
2021/11/07 08:29:14;;;;;;;7.57;6.25;;;;;;;6.23;80.33;99297.41;2623692;54;20561;-67
2021/11/07 08:31:49;;;;;;;7.65;6.60;;;;;;;6.28;80.42;99303.00;2623320;47;20030;-67
2021/11/07 08:34:25;;;;;;;8.02;6.20;;;;;;;6.27;80.32;99304.00;2624009;54;20043;-68
2021/11/07 08:37:00;;;;;;;6.68;5.70;;;;;;;6.31;80.04;99297.47;2621943;54;20039;-69
2021/11/07 08:39:32;;;;;;;;;;;;;;;6.28;80.02;99300.38;2622866;54;20542;-68
2021/11/07 08:42:05;;;;;;;5.20;4.38;;;;;;;6.25;80.29;99300.72;2624559;39;20362;-68
2021/11/07 09:01:07;;;;;;;5.03;4.20;;;;;;;6.29;80.51;99278.44;2625165;54;20022;-68
2021/11/07 09:03:51;;;;;;;6.78;5.38;;;;;;;6.26;80.26;99285.78;2624263;54;20808;-67
2021/11/07 09:09:12;;;;;;;9.30;6.70;;;;;;;6.40;80.61;99296.53;2623846;54;20030;-68
2021/11/07 09:11:50;;;;;;;7.35;4.82;;;;;;;6.44;80.22;99302.31;2625011;54;20057;-68
2021/11/07 09:14:20;;;;;;;7.20;5.97;;;;;;;6.42;80.03;99291.97;2623250;39;20486;-69
2021/11/07 09:16:52;;;;;;;5.85;5.18;;;;;;;6.49;80.02;99292.19;2622140;54;20033;-67
2021/11/07 09:19:25;;;;;;;6.28;5.05;;;;;;;6.48;79.95;99276.56;2622758;54;20082;-69
2021/11/07 09:22:06;;;;;;;6.03;4.97;;;;;;;6.53;80.07;99264.63;2622321;54;20042;-69
2021/11/07 09:24:39;;;;;;;4.68;4.20;;;;;;;6.55;79.59;99261.84;2621744;47;20038;-70
2021/11/07 09:27:16;;;;;;;4.45;4.05;;;;;;;6.56;79.68;99266.09;2622137;54;20026;-68
2021/11/07 09:29:55;;;;;;;4.55;4.00;;;;;;;6.61;79.89;99269.94;2622067;54;20030;-67
2021/11/07 09:32:38;;;;;;;4.63;3.92;;;;;;;6.54;79.66;99289.09;2622315;54;20042;-67
2021/11/07 09:35:25;;;;;;;6.28;3.88;;;;;;;6.65;79.87;99294.06;2622911;54;20058;-68
2021/11/07 09:38:00;;;;;;;7.03;4.40;;;;;;;6.68;79.51;99278.81;2622421;54;20030;-67
2021/11/07 09:40:34;;;;;;;3.97;3.20;;;;;;;6.68;79.61;99260.44;2622227;54;20027;-67
2021/11/07 09:43:18;;;;;;;6.53;4.45;;;;;;;6.67;79.71;99265.84;2622574;54;20030;-67
2021/11/07 09:46:02;;;;;;;5.15;4.07;;;;;;;6.74;79.42;99266.06;2622520;54;20053;-66
2021/11/07 09:48:34;;;;;;;6.20;4.13;;;;;;;6.76;79.61;99271.97;2622185;54;20073;-68
2021/11/07 09:51:06;;;;;;;4.30;3.90;;;;;;;6.77;79.47;99266.53;2622170;47;20046;-68
2021/11/07 09:53:39;;;;;;;4.53;3.47;;;;;;;6.70;79.12;99276.06;2622103;54;20037;-68
2021/11/07 09:56:10;;;;;;;4.65;3.40;;;;;;;6.68;79.48;99270.13;2620034;47;20022;-69
2021/11/07 09:58:43;;;;;;;14.10;7.63;;;;;;;6.65;79.89;99273.03;2619866;54;20038;-68
2021/11/07 10:01:14;;;;;;;6.75;5.28;;;;;;;6.82;79.94;99271.34;2618402;54;20062;-68
2021/11/07 10:03:45;;;;;;;7.68;4.25;;;;;;;6.93;80.17;99271.88;2619656;39;20462;-69
2021/11/07 10:06:31;;;;;;;6.70;4.47;;;;;;;6.92;79.24;99266.78;2620204;39;20421;-67
2021/11/07 10:09:05;;;;;;;3.30;2.78;;;;;;;6.92;79.51;99269.41;2619907;54;20026;-67
2021/11/07 10:11:36;;;;;;;3.00;2.60;;;;;;;6.91;79.33;99260.72;2619990;39;20429;-67
2021/11/07 10:14:15;;;;;;;3.58;2.95;;;;;;;6.84;78.70;99270.19;2619675;54;20031;-67
2021/11/07 10:16:50;;;;;;;3.17;2.75;;;;;;;6.81;79.28;99273.13;2619140;54;20041;-66
2021/11/07 10:19:31;;;;;;;3.30;2.90;;;;;;;6.87;79.43;99271.69;2619338;54;20664;-66
2021/11/07 10:22:02;;;;;;;3.22;2.92;;;;;;;6.89;79.76;99267.91;2619378;47;20073;-67
2021/11/07 10:24:38;;;;;;;5.05;3.15;;;;;;;6.93;79.58;99268.44;2623145;47;20042;-67
2021/11/07 10:27:16;;;;;;;5.38;3.42;;;;;;;6.97;79.64;99268.94;2623264;54;20035;-68
2021/11/07 10:29:49;;;;;;;2.90;2.60;;;;;;;7.06;79.34;99266.19;2624037;39;20484;-68
2021/11/07 10:32:24;;;;;;;4.32;3.63;;;;;;;7.04;79.29;99267.34;2623063;54;20542;-68
2021/11/07 10:38:16;;;;;;;3.53;3.10;;;;;;;7.06;79.68;99249.59;2622265;54;20030;-69
2021/11/07 10:41:01;;;;;;;3.08;2.78;;;;;;;7.11;79.72;99256.03;2623039;54;20042;-69
2021/11/07 10:43:44;;;;;;;4.05;2.83;;;;;;;7.13;79.41;99255.84;2623014;39;20457;-69
2021/11/07 10:46:52;;;;;;;2.92;2.45;;;;;;;7.16;79.05;99245.84;2621604;54;20034;-69
2021/11/07 10:52:21;;;;;;;7.70;4.30;;;;;;;7.34;79.19;99223.84;2623007;54;20035;-68
2021/11/07 10:54:51;;;;;;;4.00;3.22;;;;;;;7.34;79.01;99227.31;2623131;54;20046;-69
2021/11/07 10:57:25;;;;;;;14.23;7.35;;;;;;;7.32;78.49;99236.38;2621333;39;20434;-66
2021/11/07 11:00:14;;;;;;;4.68;3.10;;;;;;;7.27;78.47;99238.66;2622289;54;20034;-70
2021/11/07 11:02:46;;;;;;;10.32;5.07;;;;;;;7.19;78.32;99240.28;2623066;54;20033;-69
2021/11/07 11:05:19;;;;;;;7.93;4.28;;;;;;;7.19;78.58;99236.81;2621595;47;20034;-68
2021/11/07 11:08:04;;;;;;;9.63;5.57;;;;;;;7.24;78.27;99239.78;2622424;47;20122;-70
2021/11/07 11:10:42;;;;;;;8.13;4.18;;;;;;;7.34;78.69;99229.13;2623852;54;20041;-70
2021/11/07 11:13:24;;;;;;;4.75;3.20;;;;;;;7.39;77.92;99222.41;2622839;47;20549;-71
2021/11/07 11:16:08;;;;;;;7.60;3.63;;;;;;;7.38;77.86;99240.97;2623144;54;20037;-70
2021/11/07 11:21:47;;;;;;;6.40;3.90;;;;;;;7.35;77.95;99231.59;2623660;54;20298;-69
2021/11/07 11:24:31;;;;;;;5.85;3.45;;;;;;;7.34;78.17;99221.22;2624269;54;20545;-70
2021/11/07 11:27:12;;;;;;;;;;;;;;;7.31;77.78;99216.31;2624865;54;20031;-70
2021/11/07 11:32:40;;;;;;;8.40;4.80;;;;;;;7.24;78.25;99225.81;2623523;54;20042;-71
2021/11/07 11:35:14;;;;;;;3.13;2.80;;;;;;;7.19;78.05;99200.00;2625060;54;20554;-69
2021/11/07 11:37:51;;;;;;;;;;;;;;;7.21;78.12;99195.41;2624453;54;20029;-70
2021/11/07 11:40:25;;;;;;;4.13;2.83;;;;;;;7.25;78.08;99204.63;2624523;47;19939;-70
2021/11/07 11:42:58;;;;;;;5.85;3.13;;;;;;;7.23;78.32;99203.16;2625503;54;20569;-70
2021/11/07 11:45:36;;;;;;;4.70;3.40;;;;;;;7.25;78.78;99202.00;2625597;54;20042;-70
2021/11/07 11:48:24;;;;;;;7.32;3.90;;;;;;;7.22;78.72;99197.03;2625479;54;20102;-71
2021/11/07 11:54:09;;;;;;;6.22;4.22;;;;;;;7.26;78.79;99202.81;2624129;54;20073;-71
2021/11/07 11:56:42;;;;;;;5.78;3.60;;;;;;;7.28;78.69;99200.84;2625264;54;20034;-70
2021/11/07 11:59:29;;;;;;;5.90;3.58;;;;;;;7.31;79.03;99188.22;2624285;54;20058;-71
2021/11/07 12:02:21;;;;;;;7.22;4.38;;;;;;;7.38;78.63;99183.09;2623851;54;20034;-69
2021/11/07 12:05:15;;;;;;;6.88;4.35;;;;;;;7.39;78.42;99169.81;2624262;47;20073;-69
2021/11/07 12:07:56;;;;;;;13.48;6.10;;;;;;;7.41;79.13;99180.97;2625694;47;20077;-69
2021/11/07 12:10:35;;;;;;;6.45;4.47;;;;;;;7.44;78.74;99185.09;2620972;54;20030;-69
2021/11/07 12:13:31;;;;;;;11.63;5.18;;;;;;;7.47;79.28;99186.56;2620295;54;20061;-69
2021/11/07 12:16:06;;;;;;;5.60;3.95;;;;;;;7.42;79.23;99174.72;2620156;54;20081;-69
2021/11/07 12:19:03;;;;;;;6.63;4.45;;;;;;;7.40;79.10;99170.63;2620583;54;20026;-71
2021/11/07 12:22:00;;;;;;;5.47;3.97;;;;;;;7.36;79.13;99170.13;2619219;54;20038;-69
2021/11/07 12:24:34;;;;;;;4.35;3.72;;;;;;;7.38;79.38;99162.88;2619232;47;20030;-70
2021/11/07 12:27:24;;;;;;;5.00;4.18;;;;;;;7.34;79.67;99174.72;2619786;39;20449;-70
2021/11/07 12:29:56;;;;;;;4.95;3.90;;;;;;;7.38;79.64;99164.69;2619350;47;20042;-71
2021/11/07 12:32:32;;;;;;;4.65;4.15;;;;;;;7.30;79.98;99159.41;2619607;54;20069;-68
2021/11/07 12:35:11;;;;;;;6.90;5.30;;;;;;;7.42;80.31;99155.50;2619686;47;20042;-70
2021/11/07 12:40:51;;;;;;;8.20;4.68;;;;;;;7.52;80.12;99140.38;2620051;54;20026;-69
2021/11/07 12:43:28;;;;;;;5.15;3.85;;;;;;;7.59;79.72;99144.00;2619536;54;20033;-69
2021/11/07 12:46:04;;;;;;;4.53;4.13;;;;;;;7.62;79.83;99146.28;2620616;54;20053;-69
2021/11/07 12:48:46;;;;;;;5.43;4.00;;;;;;;7.61;80.08;99133.31;2622483;47;20030;-69
2021/11/07 12:51:21;;;;;;;5.53;3.25;;;;;;;7.54;79.93;99142.84;2625279;54;20034;-69
2021/11/07 12:54:07;;;;;;;6.70;5.00;;;;;;;7.55;80.39;99144.47;2625117;54;20058;-69
2021/11/07 12:56:43;;;;;;;4.75;4.18;;;;;;;7.53;80.42;99155.16;2625249;54;20054;-69
2021/11/07 12:59:15;;;;;;;4.32;3.65;;;;;;;7.35;80.40;99149.25;2625167;47;20023;-69
2021/11/07 13:02:05;;;;;;;4.93;3.90;;;;;;;7.35;80.93;99152.72;2625194;54;20134;-69
2021/11/07 13:04:42;;;;;;;5.82;4.60;;;;;;;7.44;80.73;99143.81;2625177;46;20039;-69
2021/11/07 13:07:20;;;;;;;6.25;4.38;;;;;;;7.44;80.86;99149.09;2624859;39;20643;-69
2021/11/07 13:09:56;;;;;;;6.82;5.07;;;;;;;7.45;80.81;99155.97;2624844;47;20023;-69
2021/11/07 13:12:30;;;;;;;5.40;4.53;;;;;;;7.45;81.02;99142.84;2625154;54;20534;-69
2021/11/07 13:15:17;;;;;;;4.82;4.28;;;;;;;7.45;81.20;99140.19;2625306;54;20034;-69
2021/11/07 13:26:35;;;;;;;4.30;3.80;;;;;;;7.54;81.10;99150.72;2625570;54;20065;-69
2021/11/07 13:29:20;;;;;;;5.25;4.57;;;;;;;7.53;81.02;99144.66;2625817;54;20157;-69
2021/11/07 13:31:58;;;;;;;5.25;4.75;;;;;;;7.60;81.18;99156.16;2625407;54;20026;-69
2021/11/07 13:34:27;;;;;;;4.43;4.03;;;;;;;7.64;81.03;99149.59;2625727;39;20417;-68
2021/11/07 13:37:00;;;;;;;4.90;4.22;;;;;;;7.61;81.02;99144.63;2625021;54;20138;-69
2021/11/07 13:39:35;;;;;;;5.22;3.83;;;;;;;7.61;80.89;99136.75;2623825;54;20573;-69
2021/11/07 13:42:12;;;;;;;6.40;4.03;;;;;;;7.57;81.52;99134.63;2624381;54;20039;-69
2021/11/07 13:44:48;;;;;;;4.55;3.90;;;;;;;7.60;81.36;99129.03;2625205;54;20038;-69
2021/11/07 13:47:17;;;;;;;4.68;3.35;;;;;;;7.60;81.64;99139.56;2625120;54;20038;-69
2021/11/07 13:49:49;;;;;;;5.35;4.20;;;;;;;7.60;81.82;99132.47;2624463;47;20027;-69
2021/11/07 13:52:19;;;;;;;4.88;4.25;;;;;;;7.65;81.91;99129.34;2624308;47;20069;-69
2021/11/07 13:54:51;;;;;;;5.55;4.55;;;;;;;7.70;82.08;99121.78;2625317;54;20026;-69
2021/11/07 13:57:28;;;;;;;5.32;4.25;;;;;;;7.77;82.14;99112.22;2624953;54;20031;-69
2021/11/07 13:59:59;;;;;;;5.72;3.90;;;;;;;7.84;81.69;99130.81;2624846;54;20042;-69
2021/11/07 14:02:29;;;;;;;5.18;4.25;;;;;;;7.87;81.77;99125.19;2625241;54;20030;-69
2021/11/07 14:05:00;;;;;;;3.95;3.50;;;;;;;7.88;81.62;99130.31;2625594;54;20034;-69
2021/11/07 14:07:33;;;;;;;8.38;6.40;;;;;;;7.89;81.65;99131.94;2625450;54;20022;-69
2021/11/07 14:10:11;;;;;;;4.57;4.13;;;;;;;7.85;81.27;99127.19;2625519;54;20026;-69
2021/11/07 14:12:45;;;;;;;7.38;4.10;;;;;;;7.86;81.56;99127.00;2625204;47;20038;-69
2021/11/07 14:15:21;;;;;;;6.10;4.65;;;;;;;7.86;81.73;99124.38;2625213;54;20312;-69
2021/11/07 14:17:53;;;;;;;6.28;4.28;;;;;;;7.87;81.46;99120.75;2625556;39;20442;-69
2021/11/07 14:20:45;;;;;;;5.13;3.65;;;;;;;7.84;81.36;99126.38;2624794;54;20065;-70
2021/11/07 14:23:22;;;;;;;4.03;3.63;;;;;;;7.87;81.75;99133.09;2625200;54;20039;-68
2021/11/07 14:26:05;;;;;;;5.38;4.00;;;;;;;7.87;81.77;99130.47;2622437;47;20034;-68
2021/11/07 14:28:51;;;;;;;6.65;5.20;;;;;;;7.91;81.81;99115.97;2622755;39;20603;-70
2021/11/07 14:31:25;;;;;;;7.78;5.47;;;;;;;7.95;81.90;99120.75;2623361;39;20481;-69
2021/11/07 14:34:00;;;;;;;7.07;5.22;;;;;;;7.96;81.72;99111.06;2623171;54;20027;-68
2021/11/07 14:36:54;;;;;;;5.55;4.30;;;;;;;7.91;81.75;99115.97;2622131;54;20034;-69
2021/11/07 14:39:41;;;;;;;3.90;3.50;;;;;;;7.91;81.93;99124.69;2622361;54;20057;-69
2021/11/07 14:42:32;;;;;;;6.28;4.50;;;;;;;7.93;81.95;99121.91;2621857;54;20538;-69
2021/11/07 14:45:26;;;;;;;4.95;4.45;;;;;;;7.90;81.91;99117.78;2624047;54;20038;-69
2021/11/07 14:48:26;;;;;;;5.60;4.57;;;;;;;7.94;82.04;99131.44;2623915;54;20030;-68
2021/11/07 14:51:09;;;;;;;9.75;6.05;;;;;;;7.94;81.54;99129.63;2624826;54;20049;-69
2021/11/07 14:53:51;;;;;;;7.32;5.30;;;;;;;7.93;81.69;99130.63;2624456;47;20522;-68
2021/11/07 14:56:27;;;;;;;5.18;4.53;;;;;;;7.93;82.10;99135.91;2624807;47;20030;-69
2021/11/07 14:59:08;;;;;;;4.45;4.05;;;;;;;7.98;82.03;99137.19;2624550;47;20033;-70
2021/11/07 15:01:42;;;;;;;5.20;4.70;;;;;;;7.97;81.94;99135.56;2623608;47;20041;-71
2021/11/07 15:04:17;;;;;;;5.30;4.57;;;;;;;7.99;82.07;99138.84;2626288;54;20046;-71
2021/11/07 15:07:00;;;;;;;4.63;4.22;;;;;;;8.01;81.97;99127.16;2626130;54;20038;-72
2021/11/07 15:09:33;;;;;;;32.58;20.02;;;;;;;8.04;81.80;99133.88;2626085;54;20057;-71
2021/11/07 15:18:16;;;;;;;5.25;4.60;;;;;;;8.04;81.94;99125.97;2626014;54;20030;-71
2021/11/07 15:20:53;;;;;;;5.85;4.70;;;;;;;8.03;82.22;99134.88;2624941;54;20065;-71
2021/11/07 15:23:32;;;;;;;5.15;4.65;;;;;;;8.00;81.89;99140.47;2623895;53;20026;-72
2021/11/07 15:26:19;;;;;;;5.55;3.80;;;;;;;8.00;82.18;99138.69;2626500;54;20031;-72
2021/11/07 15:28:57;;;;;;;5.75;4.75;;;;;;;8.02;81.88;99133.25;2626305;54;20039;-72
2021/11/07 15:31:32;;;;;;;7.65;5.38;;;;;;;8.04;82.02;99140.00;2625003;47;20868;-71
2021/11/07 15:34:06;;;;;;;7.82;5.93;;;;;;;8.11;82.14;99145.41;2624969;54;20034;-72
2021/11/07 15:36:44;;;;;;;16.25;11.50;;;;;;;8.13;81.98;99148.69;2625150;54;20030;-71
2021/11/07 15:39:18;;;;;;;13.52;9.55;;;;;;;8.13;81.97;99143.44;2626043;54;20030;-69
2021/11/07 15:42:06;;;;;;;12.38;9.10;;;;;;;8.18;81.91;99141.94;2624613;54;20038;-69
2021/11/07 15:44:41;;;;;;;11.80;8.00;;;;;;;8.19;81.53;99142.75;2624938;54;20037;-71
2021/11/07 15:47:16;;;;;;;7.95;6.22;;;;;;;8.19;81.62;99140.94;2625918;54;20081;-70
2021/11/07 15:49:49;;;;;;;13.18;9.50;;;;;;;8.25;81.91;99155.25;2625719;47;20030;-71
2021/11/07 15:52:28;;;;;;;8.25;6.20;;;;;;;8.28;81.45;99157.53;2626081;54;20037;-73
2021/11/07 15:55:04;;;;;;;11.02;8.15;;;;;;;8.33;81.79;99152.59;2625741;54;20034;-73
2021/11/07 15:57:48;;;;;;;7.88;6.75;;;;;;;8.34;81.18;99154.22;2628695;46;20069;-72
2021/11/07 16:00:27;;;;;;;6.90;6.20;;;;;;;8.36;81.49;99148.78;2626811;54;20035;-71
2021/11/07 16:03:12;;;;;;;9.07;7.20;;;;;;;8.35;81.56;99147.13;2626840;54;20080;-71
2021/11/07 16:06:01;;;;;;;8.48;6.82;;;;;;;8.32;81.42;99150.94;2627898;54;20565;-72
2021/11/07 16:08:42;;;;;;;9.23;7.20;;;;;;;8.31;81.42;99148.47;2627574;54;20034;-73
2021/11/07 16:11:18;;;;;;;9.63;7.03;;;;;;;8.30;81.25;99144.19;2626719;46;20058;-73
2021/11/07 16:14:28;;;;;;;8.30;6.38;;;;;;;8.24;81.87;99140.41;2626597;47;20034;-72
2021/11/07 16:17:00;;;;;;;9.00;7.00;;;;;;;8.23;81.76;99136.16;2626246;46;20026;-72
2021/11/07 16:19:34;;;;;;;8.48;6.38;;;;;;;8.23;81.92;99143.22;2626506;54;20055;-72
2021/11/07 16:22:05;;;;;;;7.75;5.68;;;;;;;8.20;81.37;99128.56;2626987;39;20521;-72
2021/11/07 16:24:35;;;;;;;8.75;6.00;;;;;;;8.17;81.59;99121.84;2626089;47;20038;-72
2021/11/07 16:27:06;;;;;;;14.30;9.65;;;;;;;8.17;81.61;99121.03;2626387;54;20538;-71
2021/11/07 16:29:36;;;;;;;8.95;6.43;;;;;;;8.16;81.40;99124.63;2626077;47;20035;-73
2021/11/07 16:32:13;;;;;;;24.90;14.45;;;;;;;8.09;81.80;99123.69;2626553;54;20054;-72
2021/11/07 16:34:55;;;;;;;13.63;9.95;;;;;;;8.05;81.53;99128.47;2626376;39;20465;-71
2021/11/07 16:37:28;;;;;;;8.93;7.63;;;;;;;8.07;81.90;99133.56;2624992;54;20031;-71
2021/11/07 16:40:04;;;;;;;10.67;5.73;;;;;;;8.07;81.93;99134.38;2625012;54;20019;-71
2021/11/07 16:42:34;;;;;;;8.43;6.40;;;;;;;8.08;81.36;99143.09;2624131;51;20022;-72
2021/11/07 16:45:06;;;;;;;9.32;6.93;;;;;;;8.06;81.96;99142.44;2624787;54;20584;-71
2021/11/07 16:47:38;;;;;;;12.82;8.25;;;;;;;8.06;81.85;99151.16;2624287;54;20033;-71
2021/11/07 16:50:12;;;;;;;20.60;11.75;;;;;;;8.05;81.72;99139.00;2624509;54;20037;-70
2021/11/07 16:52:53;;;;;;;10.82;7.70;;;;;;;8.05;81.75;99143.44;2624123;47;20033;-71
2021/11/07 16:55:31;;;;;;;9.38;7.72;;;;;;;8.06;81.59;99145.09;2625452;54;20042;-73
2021/11/07 16:58:01;;;;;;;9.75;7.47;;;;;;;8.09;81.92;99147.38;2625146;54;20038;-73
2021/11/07 17:00:34;;;;;;;11.30;9.13;;;;;;;8.07;81.41;99147.53;2624551;54;20565;-72
2021/11/07 17:03:07;;;;;;;9.57;7.38;;;;;;;8.07;81.32;99144.91;2623566;54;20034;-71
2021/11/07 17:05:42;;;;;;;12.05;8.55;;;;;;;8.04;81.53;99147.91;2623035;54;20034;-70
2021/11/07 17:08:16;;;;;;;8.60;7.40;;;;;;;8.10;81.35;99164.81;2621844;47;20042;-70
2021/11/07 17:10:46;;;;;;;12.68;9.48;;;;;;;8.12;81.51;99154.94;2622806;54;20038;-71
2021/11/07 17:13:16;;;;;;;14.35;12.65;;;;;;;8.10;81.58;99149.84;2622711;47;20038;-71
2021/11/07 17:15:49;;;;;;;21.90;13.95;;;;;;;8.12;81.39;99150.50;2622888;54;20037;-70
2021/11/07 17:18:22;;;;;;;15.73;10.70;;;;;;;8.16;81.46;99153.59;2622556;54;20046;-70
2021/11/07 17:21:01;;;;;;;14.95;9.60;;;;;;;8.16;80.88;99151.81;2622463;54;20267;-71
2021/11/07 17:24:00;;;;;;;11.82;9.63;;;;;;;8.14;80.80;99166.13;2622818;39;20534;-70
2021/11/07 17:26:35;;;;;;;15.45;11.68;;;;;;;8.11;80.84;99174.34;2622727;54;20043;-68
2021/11/07 17:29:07;;;;;;;16.40;12.02;;;;;;;8.07;80.68;99168.59;2621292;54;20037;-69
2021/11/07 17:31:41;;;;;;;16.90;12.50;;;;;;;8.05;80.94;99167.97;2619917;47;20072;-68
2021/11/07 17:34:14;;;;;;;17.55;13.55;;;;;;;7.94;80.62;99150.69;2620689;54;20034;-69
2021/11/07 17:36:50;;;;;;;16.88;12.52;;;;;;;7.91;81.02;99158.09;2620398;54;20019;-68
2021/11/07 17:39:29;;;;;;;26.80;15.75;;;;;;;7.86;81.23;99163.03;2621388;47;20026;-68
2021/11/07 17:45:02;;;;;;;15.13;11.07;;;;;;;7.84;80.76;99170.31;2621644;47;20677;-69
2021/11/07 17:54:25;;;;;;;13.07;9.07;;;;;;;7.76;81.32;99186.09;2622803;54;20057;-69
2021/11/07 17:56:11;;;;;;;15.68;9.63;;;;;;;7.79;81.02;99191.81;2623238;54;20027;-68
2021/11/07 17:58:40;;;;;;;13.38;9.60;;;;;;;7.77;81.09;99180.66;2623330;46;20046;-68
2021/11/07 18:01:13;;;;;;;14.55;9.40;;;;;;;7.78;81.01;99187.56;2622766;54;20034;-69
2021/11/07 18:03:49;;;;;;;17.60;12.30;;;;;;;7.77;80.70;99183.28;2622612;54;20038;-68
2021/11/07 18:06:22;;;;;;;15.20;11.00;;;;;;;7.74;80.58;99188.06;2622978;39;20421;-69
2021/11/07 18:08:59;;;;;;;12.80;10.20;;;;;;;7.70;80.62;99191.00;2622189;47;20026;-67
2021/11/07 18:11:30;;;;;;;16.42;10.20;;;;;;;7.69;80.94;99183.28;2622534;54;20030;-68
2021/11/07 18:14:00;;;;;;;13.27;9.95;;;;;;;7.72;80.53;99193.50;2623572;54;20054;-68
2021/11/07 18:16:30;;;;;;;12.63;9.20;;;;;;;7.69;80.69;99186.75;2622867;54;20037;-67
2021/11/07 18:19:00;;;;;;;16.25;9.18;;;;;;;7.72;80.49;99198.75;2623071;54;20038;-68
2021/11/07 18:21:36;;;;;;;15.73;9.13;;;;;;;7.72;80.55;99187.41;2623364;54;20039;-69
2021/11/07 18:24:15;;;;;;;12.95;8.32;;;;;;;7.74;80.69;99190.69;2624567;54;20081;-69
2021/11/07 18:26:48;;;;;;;12.05;8.65;;;;;;;7.73;80.46;99194.31;2624897;54;20026;-67
2021/11/07 18:29:18;;;;;;;14.10;9.68;;;;;;;7.72;80.45;99196.13;2624212;54;20026;-68
2021/11/07 18:31:51;;;;;;;13.85;9.52;;;;;;;7.75;80.80;99194.97;2621931;47;20129;-68
2021/11/07 18:34:20;;;;;;;15.38;8.68;;;;;;;7.76;80.53;99196.63;2622168;54;20554;-68
2021/11/07 18:36:50;;;;;;;14.40;9.38;;;;;;;7.77;79.98;99201.72;2622981;54;20034;-68
2021/11/07 18:39:26;;;;;;;14.18;10.65;;;;;;;7.71;80.17;99202.34;2623024;54;20034;-68
2021/11/07 18:41:57;;;;;;;13.38;9.13;;;;;;;7.67;80.09;99201.88;2622790;54;20033;-69
2021/11/07 18:44:27;;;;;;;14.82;8.77;;;;;;;7.59;80.46;99215.03;2622541;47;20541;-69
2021/11/07 18:46:56;;;;;;;16.73;11.45;;;;;;;7.58;80.69;99218.63;2622590;54;20034;-68
2021/11/07 18:49:26;;;;;;;16.15;11.55;;;;;;;7.57;80.76;99231.97;2624136;39;20486;-69
2021/11/07 18:51:57;;;;;;;15.85;11.60;;;;;;;7.57;81.10;99239.84;2622983;54;20034;-70
2021/11/07 18:54:30;;;;;;;38.17;22.58;;;;;;;7.58;80.87;99246.75;2623715;54;20596;-69
2021/11/07 18:57:00;;;;;;;35.88;23.23;;;;;;;7.54;80.95;99253.31;2624054;54;20029;-69
2021/11/07 18:59:30;;;;;;;20.13;13.35;;;;;;;7.51;81.14;99245.75;2623563;48;20028;-68
2021/11/07 19:02:00;;;;;;;22.10;15.73;;;;;;;7.53;80.88;99233.28;2623000;54;20050;-69
2021/11/07 19:04:29;;;;;;;30.60;23.55;;;;;;;7.56;81.20;99233.78;2624379;54;20046;-68
2021/11/07 19:07:00;;;;;;;27.55;18.17;;;;;;;7.59;80.88;99238.72;2622784;54;20022;-69
2021/11/07 19:09:33;;;;;;;22.65;16.10;;;;;;;7.61;80.63;99234.09;2623037;54;20086;-68
2021/11/07 19:12:03;;;;;;;24.65;18.85;;;;;;;7.64;80.40;99236.41;2622145;47;20030;-68
2021/11/07 19:14:35;;;;;;;22.08;15.77;;;;;;;7.61;80.80;99235.91;2623165;47;20043;-67
2021/11/07 19:17:05;;;;;;;17.35;12.07;;;;;;;7.61;80.74;99235.91;2623665;54;20027;-68
2021/11/07 19:19:35;;;;;;;17.52;12.98;;;;;;;7.60;80.92;99242.16;2621269;54;20034;-69
2021/11/07 19:22:07;;;;;;;18.90;13.77;;;;;;;7.54;80.54;99234.91;2619771;54;20026;-69
2021/11/07 19:24:40;;;;;;;16.75;12.63;;;;;;;7.50;80.76;99230.97;2620080;54;20038;-69
2021/11/07 19:27:10;;;;;;;14.93;12.32;;;;;;;7.44;80.59;99230.63;2620423;54;20588;-69
2021/11/07 19:29:43;;;;;;;24.80;16.98;;;;;;;7.44;80.98;99228.00;2620062;54;20038;-69
2021/11/07 19:32:16;;;;;;;32.90;20.97;;;;;;;7.37;80.72;99229.63;2621474;39;20360;-68
2021/11/07 19:34:47;;;;;;;24.23;15.13;;;;;;;7.19;80.71;99242.09;2620263;54;20287;-69
2021/11/07 19:37:18;;;;;;;21.10;13.73;;;;;;;7.03;80.95;99250.75;2623508;54;20018;-68
2021/11/07 19:39:51;;;;;;;17.73;13.02;;;;;;;6.97;81.76;99243.47;2624378;54;20750;-68
2021/11/07 19:42:22;;;;;;;22.13;14.10;;;;;;;7.02;81.87;99237.72;2624333;54;20130;-68
2021/11/07 19:44:57;;;;;;;21.02;15.05;;;;;;;7.07;81.51;99240.72;2623136;54;20054;-71
2021/11/07 19:47:37;;;;;;;21.40;15.02;;;;;;;7.14;81.89;99246.97;2619056;47;20029;-71
2021/11/07 19:50:09;;;;;;;24.60;17.33;;;;;;;7.21;81.56;99250.63;2618808;54;20069;-70
2021/11/07 19:52:43;;;;;;;20.55;13.57;;;;;;;7.11;81.03;99253.41;2618662;54;20030;-71
2021/11/07 19:55:17;;;;;;;18.27;13.05;;;;;;;7.02;81.34;99259.63;2617915;54;20121;-71
2021/11/07 19:57:46;;;;;;;;;;;;;;;6.95;81.33;99262.03;2618816;54;20038;-70
2021/11/07 20:03:32;;;;;;;;;;;;;;;6.95;81.91;99253.34;2617219;54;20042;-70
2021/11/07 20:08:56;;;;;;;17.08;13.02;;;;;;;6.97;81.80;99240.84;2618472;54;20037;-70
2021/11/07 20:11:28;;;;;;;25.42;17.75;;;;;;;6.97;81.70;99247.91;2618489;54;20026;-71
2021/11/07 20:13:58;;;;;;;27.15;17.27;;;;;;;6.87;81.02;99234.91;2618170;54;20034;-71
2021/11/07 20:16:27;;;;;;;27.23;18.30;;;;;;;6.78;81.54;99239.31;2618505;54;20030;-71
2021/11/07 20:18:57;;;;;;;22.52;15.55;;;;;;;6.67;81.79;99243.03;2620376;54;20042;-70
2021/11/07 20:21:28;;;;;;;22.83;14.52;;;;;;;6.69;82.29;99250.75;2620655;54;20038;-70
2021/11/07 20:24:01;;;;;;;22.63;13.27;;;;;;;6.65;81.99;99255.50;2618656;47;20038;-71
2021/11/07 20:26:33;;;;;;;21.25;13.25;;;;;;;6.61;82.13;99254.16;2617016;54;20030;-72
2021/11/07 20:29:04;;;;;;;22.92;14.63;;;;;;;6.61;82.22;99253.31;2617075;54;20150;-71
2021/11/07 20:31:34;;;;;;;20.20;13.10;;;;;;;6.56;82.24;99258.22;2617286;54;20053;-70
2021/11/07 20:34:10;;;;;;;20.55;12.98;;;;;;;6.65;82.38;99270.41;2617067;54;20506;-70
2021/11/07 20:36:43;;;;;;;18.67;13.52;;;;;;;6.64;82.17;99271.41;2617508;54;20070;-70
2021/11/07 20:39:14;;;;;;;23.73;14.48;;;;;;;6.62;82.26;99270.75;2622801;39;20437;-70
2021/11/07 20:41:49;;;;;;;22.48;14.30;;;;;;;6.55;81.96;99288.09;2620873;54;20034;-71
2021/11/07 20:44:26;;;;;;;47.97;31.35;;;;;;;6.54;82.14;99283.84;2619015;54;20038;-71
2021/11/07 20:47:22;;;;;;;24.17;15.77;;;;;;;6.58;82.80;99285.19;2616806;54;20030;-70
2021/11/07 20:50:05;;;;;;;20.08;13.63;;;;;;;6.63;82.14;99285.53;2619360;54;20034;-69
2021/11/07 20:52:38;;;;;;;27.45;16.92;;;;;;;6.66;82.13;99290.47;2620699;54;20073;-70
2021/11/07 20:55:14;;;;;;;25.07;15.57;;;;;;;6.72;81.79;99289.84;2618968;54;20050;-69
2021/11/07 20:58:02;;;;;;;33.53;18.33;;;;;;;6.75;81.24;99293.97;2618553;54;20292;-69